Time;durP1;ratioP1;P1;durP2;ratioP2;P2;SDS_P1;SDS_P2;PMS_P1;PMS_P2;Temp;Humidity;BMP_temperature;BMP_pressure;BME280_temperature;BME280_humidity;BME280_pressure;Samples;Min_cycle;Max_cycle;Signal;HPM_P1;HPM_P2
2021/06/17 00:00:27;;;;;;;3.10;2.70;;;;;;;22.68;55.17;99926.28;2080934;28;20078;-69
2021/06/17 00:01:27;;;;;;;6.15;2.90;;;;;;;22.73;54.80;99920.56;2081140;28;20524;-69
2021/06/17 00:02:28;;;;;;;6.87;3.20;;;;;;;22.72;55.06;99918.91;2080774;28;20031;-69
2021/06/17 00:03:28;;;;;;;4.07;2.83;;;;;;;22.68;55.03;99918.31;2081037;28;20465;-69
2021/06/17 00:04:28;;;;;;;4.20;2.70;;;;;;;22.70;55.18;99915.56;2080779;28;20056;-69
2021/06/17 00:05:31;;;;;;;3.77;2.63;;;;;;;22.70;54.92;99921.69;2080555;28;20035;-69
2021/06/17 00:06:31;;;;;;;5.82;2.83;;;;;;;22.69;54.82;99917.34;2080529;28;20038;-70
2021/06/17 00:07:31;;;;;;;4.27;2.93;;;;;;;22.67;55.43;99911.34;2080985;28;20423;-69
2021/06/17 00:08:32;;;;;;;5.00;2.90;;;;;;;22.67;55.18;99906.03;2080904;28;20460;-69
2021/06/17 00:09:32;;;;;;;8.60;3.10;;;;;;;22.67;54.91;99910.50;2080999;28;20056;-69
2021/06/17 00:10:42;;;;;;;5.93;2.73;;;;;;;22.66;55.22;99908.81;2080969;28;20389;-69
2021/06/17 00:11:42;;;;;;;5.15;2.67;;;;;;;22.63;55.36;99904.59;2080775;28;20032;-69
2021/06/17 00:12:42;;;;;;;6.90;2.90;;;;;;;22.63;55.44;99907.25;2080788;28;20029;-69
2021/06/17 00:13:43;;;;;;;6.93;2.72;;;;;;;22.64;55.49;99905.44;2078517;28;20038;-68
2021/06/17 00:14:43;;;;;;;7.63;3.17;;;;;;;22.68;55.28;99913.00;2081032;28;20393;-68
2021/06/17 00:15:46;;;;;;;6.13;3.10;;;;;;;22.66;55.39;99907.00;2079219;28;20345;-68
2021/06/17 00:16:46;;;;;;;6.13;2.97;;;;;;;22.64;55.44;99914.25;2079941;28;20424;-69
2021/06/17 00:17:46;;;;;;;7.70;2.90;;;;;;;22.61;55.34;99917.16;2080645;28;20056;-68
2021/06/17 00:18:47;;;;;;;6.70;2.50;;;;;;;22.53;55.89;99915.16;2075305;28;20069;-68
2021/06/17 00:19:48;;;;;;;3.42;2.65;;;;;;;22.49;56.13;99915.56;2079008;28;20033;-69
2021/06/17 00:20:48;;;;;;;5.37;2.80;;;;;;;22.47;56.04;99915.69;2078587;28;20440;-69
2021/06/17 00:21:49;;;;;;;5.93;3.10;;;;;;;22.42;56.00;99909.94;2080719;28;20107;-68
2021/06/17 00:22:50;;;;;;;6.40;2.75;;;;;;;22.39;56.57;99910.16;2088045;28;20037;-69
2021/06/17 00:23:50;;;;;;;6.68;2.83;;;;;;;22.32;56.62;99907.19;2088367;28;20062;-69
2021/06/17 00:24:50;;;;;;;3.60;2.67;;;;;;;22.33;56.54;99908.03;2080815;28;20044;-69
2021/06/17 00:25:51;;;;;;;4.20;2.60;;;;;;;22.29;56.53;99909.25;2080863;28;20385;-69
2021/06/17 00:26:52;;;;;;;22.48;3.28;;;;;;;22.26;56.83;99913.03;2080599;28;20026;-69
2021/06/17 00:27:53;;;;;;;4.70;2.58;;;;;;;22.26;56.56;99918.31;2080978;28;20082;-69
2021/06/17 00:28:53;;;;;;;5.15;2.42;;;;;;;22.29;56.91;99919.88;2080626;28;20075;-69
2021/06/17 00:29:53;;;;;;;7.53;3.00;;;;;;;22.22;57.05;99912.44;2087710;28;20115;-69
2021/06/17 00:30:54;;;;;;;4.87;2.90;;;;;;;22.23;56.85;99919.44;2081472;28;20060;-69
2021/06/17 00:31:54;;;;;;;4.80;3.47;;;;;;;22.26;56.70;99914.81;2087739;28;20025;-68
2021/06/17 00:32:55;;;;;;;5.57;2.90;;;;;;;22.22;56.58;99917.75;2088249;28;20025;-69
2021/06/17 00:33:55;;;;;;;;;;;;;;;22.18;56.84;99915.47;2080694;28;20500;-69
2021/06/17 00:34:56;;;;;;;7.53;2.77;;;;;;;22.18;57.03;99912.81;2080750;28;19949;-69
2021/06/17 00:35:56;;;;;;;6.40;3.10;;;;;;;22.18;56.77;99912.81;2080050;28;20334;-69
2021/06/17 00:36:56;;;;;;;3.67;2.50;;;;;;;22.13;56.90;99907.03;2080168;28;20052;-69
2021/06/17 00:38:00;;;;;;;8.33;2.93;;;;;;;22.10;57.20;99905.50;2080719;28;20029;-69
2021/06/17 00:39:00;;;;;;;4.32;2.55;;;;;;;22.18;57.00;99904.88;2088322;28;20484;-69
2021/06/17 00:40:01;;;;;;;4.03;2.60;;;;;;;22.15;56.77;99905.13;2088215;28;20082;-69
2021/06/17 00:41:02;;;;;;;5.97;3.00;;;;;;;22.08;56.95;99904.78;2080809;28;20420;-69
2021/06/17 00:42:02;;;;;;;5.05;2.95;;;;;;;22.07;56.80;99897.78;2080330;28;20070;-69
2021/06/17 00:43:03;;;;;;;4.63;3.05;;;;;;;22.04;57.41;99901.53;2080700;28;20036;-69
2021/06/17 00:44:04;;;;;;;4.55;2.67;;;;;;;22.02;57.14;99910.59;2080243;28;20095;-69
2021/06/17 00:45:09;;;;;;;4.15;2.63;;;;;;;21.98;57.50;99910.03;2080492;28;20072;-69
2021/06/17 00:46:09;;;;;;;4.95;2.60;;;;;;;21.94;57.52;99908.59;2080569;28;20039;-69
2021/06/17 00:47:10;;;;;;;6.53;3.10;;;;;;;21.92;57.58;99899.91;2080748;28;20500;-69
2021/06/17 00:48:12;;;;;;;6.22;3.10;;;;;;;21.90;57.76;99904.47;2086048;28;20074;-69
2021/06/17 00:49:13;;;;;;;6.65;3.03;;;;;;;21.89;57.65;99910.78;2083321;28;20075;-69
2021/06/17 00:50:14;;;;;;;7.07;3.00;;;;;;;21.87;57.96;99907.41;2076561;28;20116;-69
2021/06/17 00:51:14;;;;;;;6.03;3.10;;;;;;;21.90;57.84;99899.19;2079281;28;20108;-69
2021/06/17 00:52:15;;;;;;;4.83;2.90;;;;;;;21.92;57.77;99902.56;2079868;28;20043;-69
2021/06/17 00:53:21;;;;;;;4.20;2.60;;;;;;;21.88;57.90;99904.63;2080506;28;20132;-69
2021/06/17 00:54:32;;;;;;;6.07;2.90;;;;;;;21.85;58.23;99898.72;2081092;28;20037;-69
2021/06/17 00:55:32;;;;;;;5.93;2.97;;;;;;;21.85;58.07;99899.56;2080922;28;20112;-69
2021/06/17 00:56:32;;;;;;;3.93;3.23;;;;;;;21.79;58.13;99897.44;2080266;28;20474;-69
2021/06/17 00:57:33;;;;;;;11.93;3.63;;;;;;;21.80;58.25;99895.63;2080188;28;20027;-69
2021/06/17 00:58:33;;;;;;;3.87;3.00;;;;;;;21.75;58.22;99896.84;2080665;28;20048;-69
2021/06/17 00:59:35;;;;;;;4.77;2.93;;;;;;;21.74;58.23;99894.31;2080792;28;20022;-69
2021/06/17 01:00:36;;;;;;;5.82;2.60;;;;;;;21.65;59.16;99903.88;2087844;28;20028;-69
2021/06/17 01:01:36;;;;;;;4.53;3.08;;;;;;;21.63;58.93;99897.84;2088247;28;20021;-69
2021/06/17 01:02:37;;;;;;;4.30;2.70;;;;;;;21.50;60.00;99899.78;2080329;28;20037;-69
2021/06/17 01:03:37;;;;;;;7.17;3.00;;;;;;;21.52;59.60;99901.34;2080086;28;20389;-69
2021/06/17 01:04:37;;;;;;;3.83;2.80;;;;;;;21.44;59.97;99907.25;2080428;28;20337;-69
2021/06/17 01:05:39;;;;;;;4.23;3.40;;;;;;;21.42;59.58;99901.22;2080676;28;20119;-69
2021/06/17 01:06:39;;;;;;;5.88;2.80;;;;;;;21.41;59.65;99901.38;2080561;28;20086;-69
2021/06/17 01:07:47;;;;;;;6.10;3.03;;;;;;;21.34;60.22;99898.38;2080561;28;20578;-69
2021/06/17 01:09:01;;;;;;;4.60;2.83;;;;;;;21.29;60.22;99903.22;2087524;28;20107;-69
2021/06/17 01:10:12;;;;;;;6.55;2.88;;;;;;;21.20;60.67;99898.63;2086562;28;20033;-69
2021/06/17 01:11:21;;;;;;;3.58;2.60;;;;;;;21.19;60.85;99891.66;2080487;28;20363;-69
2021/06/17 01:12:39;;;;;;;6.22;3.10;;;;;;;21.16;60.59;99892.75;2087832;28;20051;-69
2021/06/17 01:13:55;;;;;;;4.15;3.03;;;;;;;21.17;60.06;99891.75;2079340;28;20075;-69
2021/06/17 01:15:04;;;;;;;7.45;2.90;;;;;;;21.12;60.63;99881.53;2079961;28;20129;-69
2021/06/17 01:16:19;;;;;;;5.05;2.75;;;;;;;21.10;61.20;99887.91;2074828;28;20366;-69
2021/06/17 01:17:23;;;;;;;6.78;3.08;;;;;;;21.00;61.53;99885.16;2080380;28;20049;-69
2021/06/17 01:18:25;;;;;;;8.13;3.20;;;;;;;20.92;62.36;99892.84;2076943;28;20026;-69
2021/06/17 01:19:31;;;;;;;5.30;3.13;;;;;;;20.86;62.27;99896.00;2078077;28;20017;-69
2021/06/17 01:20:42;;;;;;;5.53;3.22;;;;;;;20.77;62.40;99890.47;2082359;28;20099;-69
2021/06/17 01:21:42;;;;;;;4.97;2.92;;;;;;;20.74;63.26;99888.03;2079786;28;20021;-69
2021/06/17 01:23:26;;;;;;;5.33;2.80;;;;;;;20.68;63.92;99891.97;2080122;28;20489;-68
2021/06/17 01:25:09;;;;;;;5.82;3.22;;;;;;;20.66;63.59;99890.41;2070950;28;20033;-68
2021/06/17 01:26:33;;;;;;;7.25;3.20;;;;;;;20.70;62.69;99878.63;2077987;28;20033;-68
2021/06/17 01:27:54;;;;;;;6.57;3.55;;;;;;;20.75;62.15;99879.13;2079927;28;20040;-68
2021/06/17 01:28:56;;;;;;;4.20;3.13;;;;;;;20.80;61.85;99877.00;2080006;28;20025;-69
2021/06/17 01:30:01;;;;;;;4.50;3.40;;;;;;;20.84;61.74;99883.72;2080043;28;20111;-68
2021/06/17 01:31:05;;;;;;;6.65;2.97;;;;;;;20.89;61.68;99874.56;2080323;28;20044;-68
2021/06/17 01:32:08;;;;;;;3.88;2.85;;;;;;;20.94;61.21;99881.19;2079104;28;20037;-68
2021/06/17 01:33:09;;;;;;;6.80;3.10;;;;;;;21.04;60.82;99870.69;2080984;28;20033;-68
2021/06/17 01:34:11;;;;;;;;;;;;;;;21.03;60.50;99863.72;2087241;28;20020;-68
2021/06/17 01:35:14;;;;;;;3.95;3.17;;;;;;;21.04;60.65;99867.22;2080168;28;19913;-68
2021/06/17 01:36:17;;;;;;;3.75;3.03;;;;;;;21.15;60.39;99872.50;2079356;28;20505;-68
2021/06/17 01:37:21;;;;;;;6.15;3.85;;;;;;;21.13;60.52;99874.44;2079712;28;20048;-69
2021/06/17 01:38:25;;;;;;;4.80;3.03;;;;;;;21.14;60.25;99871.66;2079614;28;20029;-68
2021/06/17 01:39:26;;;;;;;6.00;3.22;;;;;;;21.18;60.27;99872.25;2087623;28;20024;-68
2021/06/17 01:40:29;;;;;;;7.00;3.00;;;;;;;21.15;60.42;99870.69;2085933;28;20032;-69
2021/06/17 01:41:32;;;;;;;3.47;2.65;;;;;;;21.17;59.98;99872.38;2077873;28;20029;-68
2021/06/17 01:42:36;;;;;;;4.72;3.20;;;;;;;21.14;60.27;99865.53;2082364;28;20032;-68
2021/06/17 01:43:40;;;;;;;6.07;2.88;;;;;;;21.12;60.25;99875.41;2079032;28;20040;-69
2021/06/17 01:44:41;;;;;;;4.82;3.08;;;;;;;21.12;60.32;99870.94;2078762;28;20029;-68
2021/06/17 01:45:44;;;;;;;4.55;3.13;;;;;;;21.15;60.05;99864.56;2078764;28;20431;-68
2021/06/17 01:46:46;;;;;;;5.32;2.72;;;;;;;21.20;59.68;99872.16;2079819;28;20396;-68
2021/06/17 01:47:50;;;;;;;5.78;2.67;;;;;;;21.15;60.04;99867.22;2079234;28;20029;-69
2021/06/17 01:48:53;;;;;;;4.38;3.40;;;;;;;21.11;60.12;99873.72;2076259;28;20032;-69
2021/06/17 01:49:54;;;;;;;5.95;2.92;;;;;;;21.12;59.81;99872.75;2074584;28;20021;-68
2021/06/17 01:50:56;;;;;;;6.22;3.05;;;;;;;21.10;60.17;99872.03;2078213;28;20101;-68
2021/06/17 01:51:58;;;;;;;4.38;2.67;;;;;;;21.04;60.28;99865.41;2086825;28;20787;-69
2021/06/17 01:52:59;;;;;;;5.43;2.55;;;;;;;21.04;60.42;99870.69;2087137;28;20032;-69
2021/06/17 01:54:00;;;;;;;5.87;3.27;;;;;;;21.03;60.20;99871.66;2079672;28;20021;-68
2021/06/17 01:55:02;;;;;;;5.38;3.00;;;;;;;20.97;60.43;99864.22;2079382;28;20275;-68
2021/06/17 01:56:04;;;;;;;5.60;3.10;;;;;;;20.99;60.42;99870.25;2079924;28;20021;-68
2021/06/17 01:57:05;;;;;;;4.82;2.78;;;;;;;21.05;60.03;99867.09;2079610;28;20080;-68
2021/06/17 01:58:08;;;;;;;6.05;3.22;;;;;;;21.04;59.86;99868.06;2080109;28;20374;-68
2021/06/17 01:59:10;;;;;;;4.07;3.15;;;;;;;21.00;60.16;99874.56;2079866;28;20428;-68
2021/06/17 02:00:11;;;;;;;7.45;3.47;;;;;;;20.97;60.26;99875.63;2087635;28;20701;-68
2021/06/17 02:01:14;;;;;;;3.03;2.72;;;;;;;21.02;60.04;99883.22;2087530;28;20106;-67
2021/06/17 02:02:16;;;;;;;7.75;3.10;;;;;;;21.00;59.80;99882.53;2087083;28;20029;-68
2021/06/17 02:03:19;;;;;;;5.75;3.22;;;;;;;20.99;59.93;99880.84;2087152;28;20488;-68
2021/06/17 02:04:20;;;;;;;5.13;2.70;;;;;;;20.91;60.76;99885.91;2079785;28;20038;-68
2021/06/17 02:05:25;;;;;;;4.00;2.78;;;;;;;20.91;60.40;99888.56;2087026;28;20120;-68
2021/06/17 02:06:27;;;;;;;3.97;3.03;;;;;;;20.87;60.15;99882.63;2086820;28;20111;-68
2021/06/17 02:07:28;;;;;;;5.90;3.35;;;;;;;20.91;60.46;99889.38;2070912;28;20032;-69
2021/06/17 02:08:28;;;;;;;4.07;2.85;;;;;;;20.84;61.30;99889.00;2079068;28;20980;-69
2021/06/17 02:09:29;;;;;;;6.80;3.30;;;;;;;20.72;61.63;99892.56;2079676;28;20109;-69
2021/06/17 02:10:31;;;;;;;5.53;2.83;;;;;;;20.71;61.67;99893.56;2079513;28;20341;-68
2021/06/17 02:11:32;;;;;;;5.57;2.92;;;;;;;20.67;61.60;99892.94;2086113;28;20029;-68
2021/06/17 02:12:33;;;;;;;6.03;3.08;;;;;;;20.65;61.70;99896.69;2086843;28;20086;-69
2021/06/17 02:13:34;;;;;;;5.72;2.90;;;;;;;20.58;62.16;99898.13;2079057;28;20079;-68
2021/06/17 02:14:35;;;;;;;5.30;2.83;;;;;;;20.50;61.87;99888.97;2079444;28;20465;-69
2021/06/17 02:15:35;;;;;;;;;;;;;;;20.51;62.07;99893.31;2080520;28;20036;-68
2021/06/17 02:16:41;;;;;;;6.18;3.08;;;;;;;20.44;62.58;99889.44;2081720;28;20290;-68
2021/06/17 02:17:44;;;;;;;3.88;3.05;;;;;;;20.49;61.96;99894.38;2081276;28;20037;-68
2021/06/17 02:18:46;;;;;;;5.47;3.50;;;;;;;20.53;61.80;99896.66;2081552;28;20024;-68
2021/06/17 02:19:49;;;;;;;4.50;3.00;;;;;;;20.58;61.82;99891.00;2080704;28;20033;-68
2021/06/17 02:20:49;;;;;;;4.97;2.60;;;;;;;20.59;61.85;99891.88;2076352;28;20024;-68
2021/06/17 02:21:54;;;;;;;5.03;2.90;;;;;;;20.60;61.30;99890.91;2077815;28;20028;-68
2021/06/17 02:23:03;;;;;;;4.32;3.08;;;;;;;20.61;61.46;99887.31;2081410;28;20836;-68
2021/06/17 02:24:08;;;;;;;6.90;3.03;;;;;;;20.62;61.12;99887.16;2088919;28;20213;-68
2021/06/17 02:25:10;;;;;;;4.78;3.00;;;;;;;20.63;61.25;99885.34;2088998;28;20033;-68
2021/06/17 02:26:12;;;;;;;4.55;2.70;;;;;;;20.63;61.35;99890.66;2088876;28;20044;-68
2021/06/17 02:27:15;;;;;;;7.50;3.38;;;;;;;20.68;61.03;99893.81;2081216;28;20026;-68
2021/06/17 02:28:20;;;;;;;7.20;2.95;;;;;;;20.73;60.46;99891.63;2081484;28;20032;-68
2021/06/17 02:29:22;;;;;;;4.75;3.00;;;;;;;20.68;60.53;99888.50;2081687;28;20025;-68
2021/06/17 02:30:25;;;;;;;5.93;3.00;;;;;;;20.71;60.67;99896.22;2081408;28;20036;-69
2021/06/17 02:31:29;;;;;;;6.55;3.08;;;;;;;20.76;60.35;99896.72;2081750;28;20072;-68
2021/06/17 02:32:30;;;;;;;7.03;3.03;;;;;;;20.69;60.58;99900.78;2081407;28;20033;-68
2021/06/17 02:33:32;;;;;;;;;;;;;;;20.69;60.81;99892.84;2082088;28;20029;-68
2021/06/17 02:34:33;;;;;;;6.78;2.95;;;;;;;20.73;60.17;99899.56;2074654;28;19916;-68
2021/06/17 02:35:36;;;;;;;8.02;3.63;;;;;;;20.72;60.49;99903.16;2077591;28;20573;-68
2021/06/17 02:36:39;;;;;;;5.32;3.10;;;;;;;20.70;60.69;99902.47;2074806;28;20552;-68
2021/06/17 02:37:44;;;;;;;6.22;3.20;;;;;;;20.72;60.31;99900.53;2081695;28;20028;-69
2021/06/17 02:38:45;;;;;;;5.28;3.55;;;;;;;20.67;60.45;99906.19;2081322;28;20021;-69
2021/06/17 02:39:50;;;;;;;8.05;3.17;;;;;;;20.63;60.59;99901.25;2081726;28;20021;-68
2021/06/17 02:40:51;;;;;;;5.38;2.90;;;;;;;20.63;60.69;99911.81;2081427;28;20029;-68
2021/06/17 02:41:55;;;;;;;4.90;3.05;;;;;;;20.59;60.91;99911.22;2081146;28;20469;-68
2021/06/17 02:42:56;;;;;;;9.68;3.15;;;;;;;20.59;61.41;99918.34;2081106;28;20036;-69
2021/06/17 02:43:58;;;;;;;4.30;2.70;;;;;;;20.54;61.89;99913.41;2081687;28;20062;-68
2021/06/17 02:44:59;;;;;;;7.45;2.92;;;;;;;20.57;61.80;99912.31;2080744;28;20496;-68
2021/06/17 02:46:00;;;;;;;4.75;3.20;;;;;;;20.49;62.61;99908.47;2080782;28;20025;-68
2021/06/17 02:47:00;;;;;;;3.75;3.17;;;;;;;20.47;61.60;99909.53;2080743;28;20067;-68
2021/06/17 02:48:00;;;;;;;3.73;3.10;;;;;;;20.50;61.35;99907.50;2079538;28;20029;-68
2021/06/17 02:49:01;;;;;;;5.63;2.97;;;;;;;20.48;61.25;99909.41;2077400;28;20031;-68
2021/06/17 02:50:04;;;;;;;4.27;3.10;;;;;;;20.48;61.20;99904.13;2080060;28;20064;-68
2021/06/17 02:51:05;;;;;;;3.65;3.03;;;;;;;20.47;61.53;99905.09;2081279;28;20452;-68
2021/06/17 02:52:05;;;;;;;5.47;3.47;;;;;;;20.49;60.99;99905.81;2081005;28;20041;-68
2021/06/17 02:53:06;;;;;;;7.53;3.10;;;;;;;20.53;61.00;99909.06;2080928;28;20036;-68
2021/06/17 02:54:06;;;;;;;6.78;3.15;;;;;;;20.55;61.08;99906.28;2081229;28;20057;-68
2021/06/17 02:55:07;;;;;;;6.17;3.20;;;;;;;20.49;61.08;99908.47;2080302;28;20080;-68
2021/06/17 02:56:12;;;;;;;;;;;;;;;20.51;61.45;99911.84;2078235;28;20021;-68
2021/06/17 02:57:20;;;;;;;4.65;3.45;;;;;;;20.50;61.08;99910.16;2077828;28;20062;-68
2021/06/17 02:58:30;;;;;;;4.22;3.03;;;;;;;20.46;61.49;99903.38;2074771;28;20443;-69
2021/06/17 02:59:58;;;;;;;8.20;3.25;;;;;;;20.46;60.86;99908.69;2080092;28;20021;-69
2021/06/17 03:01:09;;;;;;;5.28;3.28;;;;;;;20.49;60.75;99912.91;2088524;28;20033;-68
2021/06/17 03:02:15;;;;;;;4.40;3.15;;;;;;;20.58;60.67;99919.31;2088286;28;20021;-68
2021/06/17 03:03:26;;;;;;;6.30;3.25;;;;;;;20.45;60.95;99914.94;2081966;28;20061;-68
2021/06/17 03:04:34;;;;;;;5.10;3.20;;;;;;;20.40;61.15;99917.09;2080712;28;20373;-69
2021/06/17 03:05:41;;;;;;;5.22;3.08;;;;;;;20.40;61.67;99919.75;2080904;28;20041;-68
2021/06/17 03:06:48;;;;;;;4.68;3.00;;;;;;;20.36;62.52;99936.81;2080664;28;20029;-67
2021/06/17 03:07:58;;;;;;;5.60;3.22;;;;;;;20.30;63.73;99932.81;2081049;28;20121;-68
2021/06/17 03:09:03;;;;;;;5.75;4.13;;;;;;;20.07;65.54;99931.91;2081122;28;20430;-69
2021/06/17 03:10:08;;;;;;;7.75;4.63;;;;;;;19.95;66.51;99930.16;2080725;28;20059;-69
2021/06/17 03:11:11;;;;;;;7.60;4.70;;;;;;;19.74;67.79;99928.97;2081172;28;20033;-69
2021/06/17 03:12:14;;;;;;;5.35;4.55;;;;;;;19.65;67.93;99927.00;2074251;28;20375;-68
2021/06/17 03:13:15;;;;;;;5.53;4.00;;;;;;;19.54;68.14;99921.63;2080804;28;20064;-69
2021/06/17 03:14:19;;;;;;;6.57;4.30;;;;;;;19.51;68.36;99928.00;2081180;28;20025;-68
2021/06/17 03:15:20;;;;;;;6.70;4.22;;;;;;;19.47;68.18;99915.13;2088370;28;20029;-68
2021/06/17 03:16:24;;;;;;;8.43;4.45;;;;;;;19.38;68.43;99908.69;2088436;28;20422;-68
2021/06/17 03:17:25;;;;;;;5.25;4.05;;;;;;;19.35;68.55;99906.28;2081123;28;20100;-67
2021/06/17 03:18:28;;;;;;;4.95;3.97;;;;;;;19.43;67.58;99906.56;2083686;28;20473;-67
2021/06/17 03:19:31;;;;;;;5.72;3.72;;;;;;;19.43;67.08;99910.03;2083340;28;20028;-68
2021/06/17 03:20:34;;;;;;;6.95;3.58;;;;;;;19.53;66.45;99910.25;2077723;28;20029;-69
2021/06/17 03:21:40;;;;;;;5.85;3.35;;;;;;;19.56;65.99;99910.00;2087985;28;20029;-69
2021/06/17 03:22:46;;;;;;;5.22;3.50;;;;;;;19.67;65.31;99908.38;2087742;28;20958;-69
2021/06/17 03:23:49;;;;;;;6.25;3.58;;;;;;;19.67;65.41;99908.38;2088648;28;20039;-69
2021/06/17 03:24:52;;;;;;;6.18;3.25;;;;;;;19.70;65.07;99908.16;2088470;28;20024;-69
2021/06/17 03:25:56;;;;;;;8.45;3.58;;;;;;;19.80;64.24;99910.94;2080829;28;20104;-68
2021/06/17 03:27:01;;;;;;;5.80;3.47;;;;;;;19.90;63.49;99912.84;2074222;28;20433;-68
2021/06/17 03:28:02;;;;;;;8.18;3.28;;;;;;;19.90;63.36;99912.84;2081063;28;20119;-68
2021/06/17 03:29:03;;;;;;;8.45;3.00;;;;;;;20.04;62.71;99916.25;2080597;28;20022;-68
2021/06/17 03:30:05;;;;;;;8.55;3.40;;;;;;;20.02;62.92;99919.03;2080977;28;20064;-68
2021/06/17 03:31:08;;;;;;;5.30;2.78;;;;;;;20.06;62.73;99924.94;2081072;28;20056;-68
2021/06/17 03:32:11;;;;;;;3.63;3.20;;;;;;;20.05;63.02;99926.75;2080619;28;20071;-68
2021/06/17 03:33:13;;;;;;;4.85;2.95;;;;;;;20.08;62.60;99928.31;2080783;28;20025;-68
2021/06/17 03:34:14;;;;;;;3.45;2.92;;;;;;;20.10;62.78;99938.75;2080872;28;20034;-68
2021/06/17 03:35:18;;;;;;;4.38;3.25;;;;;;;20.03;63.92;99930.47;2080790;28;20041;-68
2021/06/17 03:36:19;;;;;;;7.80;3.78;;;;;;;20.02;64.30;99928.78;2080895;28;20102;-68
2021/06/17 03:37:21;;;;;;;4.10;3.10;;;;;;;20.02;64.45;99926.97;2080912;28;20021;-68
2021/06/17 03:38:23;;;;;;;4.28;3.20;;;;;;;20.00;64.85;99928.03;2080994;28;20083;-68
2021/06/17 03:39:24;;;;;;;8.43;3.83;;;;;;;19.97;64.95;99930.91;2081123;28;20358;-68
2021/06/17 03:40:26;;;;;;;4.43;3.17;;;;;;;19.95;65.92;99927.53;2081015;28;20056;-68
2021/06/17 03:41:29;;;;;;;7.90;3.50;;;;;;;19.90;65.73;99920.78;2080595;28;20030;-68
2021/06/17 03:42:31;;;;;;;6.75;3.40;;;;;;;19.85;65.54;99922.06;2088028;28;20074;-68
2021/06/17 03:43:34;;;;;;;6.25;3.10;;;;;;;19.88;64.75;99922.69;2088354;28;20103;-68
2021/06/17 03:44:36;;;;;;;4.82;3.30;;;;;;;19.92;64.64;99915.38;2080927;28;20025;-68
2021/06/17 03:45:42;;;;;;;5.90;3.40;;;;;;;19.97;63.99;99920.31;2080816;28;20377;-68
2021/06/17 03:46:44;;;;;;;7.03;2.95;;;;;;;19.98;63.94;99927.31;2080767;28;20029;-68
2021/06/17 03:47:47;;;;;;;6.30;2.75;;;;;;;20.04;63.09;99921.53;2081057;28;20029;-68
2021/06/17 03:48:48;;;;;;;11.07;3.63;;;;;;;20.11;63.75;99921.94;2078294;28;20056;-68
2021/06/17 03:49:50;;;;;;;3.40;2.80;;;;;;;20.17;62.92;99927.63;2080083;28;20029;-68
2021/06/17 03:50:52;;;;;;;5.43;3.40;;;;;;;20.28;63.50;99928.63;2080301;28;20077;-68
2021/06/17 03:51:53;;;;;;;7.72;3.53;;;;;;;20.39;63.94;99936.59;2080511;28;20083;-68
2021/06/17 03:52:56;;;;;;;5.88;3.72;;;;;;;20.39;64.64;99941.88;2080676;28;20030;-68
2021/06/17 03:53:56;;;;;;;10.02;4.38;;;;;;;20.30;65.61;99940.75;2080996;28;20025;-67
2021/06/17 03:54:57;;;;;;;8.23;3.67;;;;;;;20.06;66.38;99941.66;2080686;28;20076;-67
2021/06/17 03:55:59;;;;;;;12.63;3.92;;;;;;;20.20;65.80;99943.28;2080860;28;20541;-68
2021/06/17 03:57:00;;;;;;;;;;;;;;;20.15;66.19;99945.41;2081263;28;20040;-68
2021/06/17 03:58:01;;;;;;;9.68;4.28;;;;;;;20.35;66.32;99943.06;2080895;28;19913;-68
2021/06/17 03:59:02;;;;;;;8.65;4.32;;;;;;;20.97;64.33;99941.03;2080938;28;20025;-68
2021/06/17 04:00:03;;;;;;;9.35;4.38;;;;;;;21.75;61.17;99944.59;2088318;28;20033;-68
2021/06/17 04:01:06;;;;;;;7.55;4.03;;;;;;;22.50;58.29;99934.03;2087357;28;20543;-68
2021/06/17 04:02:07;;;;;;;5.40;3.85;;;;;;;23.28;55.84;99933.56;2078923;28;20488;-68
2021/06/17 04:03:09;;;;;;;6.38;3.97;;;;;;;23.58;55.09;99931.81;2079392;28;20033;-68
2021/06/17 04:04:10;;;;;;;10.77;4.00;;;;;;;23.54;54.93;99934.88;2080638;28;20036;-69
2021/06/17 04:05:13;;;;;;;5.70;3.53;;;;;;;23.15;55.88;99936.44;2079326;28;20032;-69
2021/06/17 04:06:17;;;;;;;6.47;3.75;;;;;;;22.74;57.10;99942.69;2073561;28;20494;-69
2021/06/17 04:07:23;;;;;;;5.90;3.40;;;;;;;22.92;57.07;99949.06;2080823;28;20116;-69
2021/06/17 04:08:28;;;;;;;8.15;4.00;;;;;;;22.59;57.82;99950.16;2080736;28;20113;-69
2021/06/17 04:09:32;;;;;;;7.97;3.05;;;;;;;23.01;56.26;99948.28;2080823;28;20473;-68
2021/06/17 04:10:33;;;;;;;5.13;3.05;;;;;;;23.34;53.98;99950.78;2080120;28;20036;-68
2021/06/17 04:11:34;;;;;;;;;;;;;;;22.93;55.19;99953.41;2079814;28;20017;-68
2021/06/17 04:12:38;;;;;;;6.65;3.13;;;;;;;22.93;55.21;99953.41;2080700;28;19916;-68
2021/06/17 04:13:42;;;;;;;8.95;3.40;;;;;;;22.19;57.56;99952.50;2080761;28;20065;-68
2021/06/17 04:14:47;;;;;;;5.38;2.92;;;;;;;21.94;59.36;99961.66;2080675;28;20033;-68
2021/06/17 04:15:48;;;;;;;6.35;2.88;;;;;;;22.12;59.24;99953.13;2079034;28;20029;-68
2021/06/17 04:16:51;;;;;;;5.22;3.13;;;;;;;22.15;59.13;99953.72;2080614;28;20029;-68
2021/06/17 04:17:56;;;;;;;5.25;3.03;;;;;;;22.09;59.58;99954.22;2079872;28;20069;-68
2021/06/17 04:18:57;;;;;;;5.43;2.75;;;;;;;22.07;59.01;99951.72;2075705;28;20037;-68
2021/06/17 04:20:03;;;;;;;5.78;3.50;;;;;;;22.05;58.79;99953.66;2077214;28;20149;-68
2021/06/17 04:21:05;;;;;;;5.90;3.40;;;;;;;22.00;57.49;99950.50;2087676;28;20036;-68
2021/06/17 04:22:07;;;;;;;;;;;;;;;21.91;59.21;99957.44;2080656;28;20025;-68
2021/06/17 04:23:10;;;;;;;8.07;3.85;;;;;;;21.77;60.32;99958.56;2080447;28;20381;-68
2021/06/17 04:24:11;;;;;;;5.32;4.18;;;;;;;21.79;60.23;99958.44;2080617;28;20036;-68
2021/06/17 04:25:12;;;;;;;9.00;4.95;;;;;;;21.77;59.24;99949.75;2080070;28;20037;-68
2021/06/17 04:26:18;;;;;;;12.13;4.93;;;;;;;21.79;59.09;99953.13;2086965;28;20033;-69
2021/06/17 04:27:22;;;;;;;13.20;5.68;;;;;;;21.78;59.45;99954.09;2087483;28;20029;-68
2021/06/17 04:28:27;;;;;;;8.48;5.93;;;;;;;21.76;58.32;99948.06;2080419;28;20432;-69
2021/06/17 04:29:29;;;;;;;7.55;5.03;;;;;;;21.76;58.22;99954.22;2080610;28;20521;-71
2021/06/17 04:30:31;;;;;;;8.75;5.68;;;;;;;21.75;59.24;99952.53;2080592;28;20022;-69
2021/06/17 04:31:32;;;;;;;10.48;5.60;;;;;;;21.79;58.44;99955.78;2080116;28;20030;-70
2021/06/17 04:32:34;;;;;;;9.40;6.55;;;;;;;21.77;58.36;99950.63;2080645;28;20473;-70
2021/06/17 04:33:35;;;;;;;6.10;5.50;;;;;;;21.76;58.00;99954.22;2080522;28;20600;-70
2021/06/17 04:34:38;;;;;;;9.10;6.53;;;;;;;21.77;59.37;99955.91;2080580;28;20025;-70
2021/06/17 04:35:42;;;;;;;7.72;4.40;;;;;;;21.73;59.67;99956.28;2080167;28;20068;-70
2021/06/17 04:36:43;;;;;;;11.95;5.55;;;;;;;21.69;61.46;99952.19;2080448;28;20025;-70
2021/06/17 04:37:44;;;;;;;8.02;5.22;;;;;;;21.57;61.36;99949.53;2080039;28;20544;-70
2021/06/17 04:38:46;;;;;;;;;;;;;;;21.65;60.28;99959.56;2080320;28;20037;-70
2021/06/17 04:39:46;;;;;;;6.85;4.30;;;;;;;21.63;62.33;99958.00;2074395;28;19959;-70
2021/06/17 04:40:48;;;;;;;9.00;4.63;;;;;;;21.64;62.82;99954.38;2080581;28;20111;-70
2021/06/17 04:41:48;;;;;;;12.18;9.32;;;;;;;21.68;59.38;99955.81;2087348;28;20033;-70
2021/06/17 04:42:50;;;;;;;15.60;8.60;;;;;;;21.71;57.76;99952.91;2087657;28;20025;-70
2021/06/17 04:43:52;;;;;;;13.75;8.88;;;;;;;21.74;57.67;99952.69;2080524;28;20037;-70
2021/06/17 04:44:53;;;;;;;12.38;10.18;;;;;;;21.85;58.24;99954.44;2080328;28;20061;-70
2021/06/17 04:45:56;;;;;;;14.75;11.73;;;;;;;21.96;57.98;99949.09;2080181;28;20040;-70
2021/06/17 04:46:58;;;;;;;7.85;4.53;;;;;;;21.91;56.97;99949.47;2080301;28;20021;-70
2021/06/17 04:48:01;;;;;;;6.13;4.60;;;;;;;22.09;56.46;99943.63;2077875;28;20200;-71
2021/06/17 04:49:03;;;;;;;11.02;5.18;;;;;;;22.22;56.08;99938.97;2074454;28;20042;-71
2021/06/17 04:50:06;;;;;;;9.57;3.92;;;;;;;22.31;56.24;99947.97;2077373;28;20481;-71
2021/06/17 04:51:10;;;;;;;4.43;3.28;;;;;;;22.50;55.44;99949.97;2079336;28;20067;-70
2021/06/17 04:52:17;;;;;;;6.20;3.33;;;;;;;22.57;55.14;99942.31;2079608;28;20805;-71
2021/06/17 04:53:19;;;;;;;5.57;3.22;;;;;;;22.76;54.75;99946.06;2080082;28;20025;-71
2021/06/17 04:54:19;;;;;;;5.32;3.10;;;;;;;23.19;53.51;99939.69;2080264;28;20035;-71
2021/06/17 04:55:20;;;;;;;4.27;2.87;;;;;;;24.80;49.06;99938.53;2087675;28;20024;-69
2021/06/17 04:56:20;;;;;;;4.55;3.15;;;;;;;26.87;43.41;99932.56;2087849;28;20025;-70
2021/06/17 04:57:20;;;;;;;4.03;2.80;;;;;;;28.45;39.42;99939.09;2080305;28;20040;-69